Time;durP1;ratioP1;P1;durP2;ratioP2;P2;SDS_P1;SDS_P2;PMS_P1;PMS_P2;Temp;Humidity;BMP_temperature;BMP_pressure;BME280_temperature;BME280_humidity;BME280_pressure;Samples;Min_cycle;Max_cycle;Signal;HPM_P1;HPM_P2
2022/06/20 00:00:21;;;;;;;0.10;0.10;;;;;;;22.77;47.81;100109.78;4992187;28;20029;-74
2022/06/20 00:02:50;;;;;;;0.10;0.10;;;;;;;22.65;48.16;100102.03;4992450;28;20037;-74
2022/06/20 00:05:29;;;;;;;0.10;0.10;;;;;;;22.64;48.25;100095.59;4992089;28;20038;-75
2022/06/20 00:07:55;;;;;;;0.10;0.10;;;;;;;22.54;48.69;100096.66;4980160;28;20026;-74
2022/06/20 00:10:26;;;;;;;0.10;0.10;;;;;;;22.63;48.25;100093.97;4979443;28;20540;-74
2022/06/20 00:12:53;;;;;;;0.10;0.10;;;;;;;22.57;48.50;100094.97;4995412;28;20034;-74
2022/06/20 00:15:29;;;;;;;0.10;0.10;;;;;;;22.38;48.89;100079.69;4995635;28;20038;-74
2022/06/20 00:17:56;;;;;;;0.10;0.10;;;;;;;22.54;48.67;100093.03;4995830;28;20030;-74
2022/06/20 00:20:22;;;;;;;0.10;0.10;;;;;;;22.43;49.01;100085.63;4995534;28;20468;-74
2022/06/20 00:22:48;;;;;;;0.10;0.10;;;;;;;22.43;49.17;100091.28;4979392;28;20060;-74
2022/06/20 00:25:16;;;;;;;0.10;0.10;;;;;;;22.47;48.94;100091.97;4979589;28;20030;-74
2022/06/20 00:27:42;;;;;;;0.10;0.10;;;;;;;22.43;49.03;100079.16;4979122;28;20089;-74
2022/06/20 00:30:10;;;;;;;0.10;0.10;;;;;;;22.40;49.26;100091.38;4978752;28;20038;-74
2022/06/20 00:32:36;;;;;;;0.10;0.10;;;;;;;22.44;49.22;100092.09;4995228;28;20058;-74
2022/06/20 00:35:03;;;;;;;0.10;0.10;;;;;;;22.39;49.57;100087.75;4995203;28;20061;-74
2022/06/20 00:37:28;;;;;;;0.10;0.10;;;;;;;22.27;50.10;100080.00;4995441;28;20423;-74
2022/06/20 00:39:57;;;;;;;0.10;0.10;;;;;;;22.35;49.85;100083.41;4979137;28;20038;-74
2022/06/20 00:42:23;;;;;;;0.13;0.13;;;;;;;22.25;50.06;100085.28;4979562;28;20433;-74
2022/06/20 00:44:53;;;;;;;0.10;0.10;;;;;;;22.22;50.46;100074.88;4978769;28;20058;-74
2022/06/20 00:47:23;;;;;;;0.20;0.20;;;;;;;22.27;50.33;100087.69;4979173;28;20038;-74
2022/06/20 00:50:04;;;;;;;0.10;0.10;;;;;;;22.21;50.42;100082.56;4978810;28;20065;-74
2022/06/20 00:52:40;;;;;;;0.10;0.10;;;;;;;22.19;50.52;100087.88;4995357;28;20476;-73
2022/06/20 00:55:12;;;;;;;0.10;0.10;;;;;;;22.19;50.11;100075.75;4996195;28;20402;-75
2022/06/20 00:57:46;;;;;;;0.10;0.10;;;;;;;22.16;49.90;100068.94;4995406;28;20035;-75
2022/06/20 01:00:19;;;;;;;0.10;0.10;;;;;;;22.11;50.41;100075.16;4978528;28;20030;-73
2022/06/20 01:02:48;;;;;;;0.20;0.20;;;;;;;22.10;50.67;100076.34;4978716;28;20047;-73
2022/06/20 01:05:23;;;;;;;0.10;0.10;;;;;;;22.13;50.13;100071.84;4978794;28;20376;-73
2022/06/20 01:07:55;;;;;;;0.10;0.10;;;;;;;22.20;49.45;100066.00;4978639;28;20120;-75
2022/06/20 01:10:22;;;;;;;0.20;0.20;;;;;;;22.16;49.55;100068.16;4996343;28;20034;-73
2022/06/20 01:13:11;;;;;;;0.20;0.20;;;;;;;22.17;49.28;100062.03;4978281;28;20069;-73
2022/06/20 01:15:40;;;;;;;0.10;0.10;;;;;;;22.07;48.89;100068.75;4995884;28;20144;-73
2022/06/20 01:18:16;;;;;;;0.10;0.10;;;;;;;22.05;49.10;100067.56;4978158;28;20035;-75
2022/06/20 01:20:44;;;;;;;0.10;0.10;;;;;;;21.98;49.36;100072.19;4994426;28;20022;-74
2022/06/20 01:23:28;;;;;;;0.10;0.10;;;;;;;21.94;49.25;100063.00;4978320;28;20120;-75
2022/06/20 01:26:09;;;;;;;0.10;0.10;;;;;;;21.94;49.39;100071.50;4978143;28;20484;-73
2022/06/20 01:28:42;;;;;;;0.10;0.10;;;;;;;21.91;49.73;100066.72;4978038;28;20034;-75
2022/06/20 01:31:10;;;;;;;0.10;0.10;;;;;;;21.93;49.94;100067.06;4978019;28;20037;-73
2022/06/20 01:33:37;;;;;;;0.20;0.20;;;;;;;22.00;49.70;100065.28;4962297;28;20397;-75
2022/06/20 01:38:48;;;;;;;0.10;0.10;;;;;;;22.01;49.82;100058.41;4995707;28;20097;-73
2022/06/20 01:44:01;;;;;;;0.10;0.10;;;;;;;21.91;49.88;100061.06;4995160;28;20048;-73
2022/06/20 01:46:30;;;;;;;0.10;0.10;;;;;;;21.85;50.29;100057.16;4977663;28;20081;-73
2022/06/20 01:48:59;;;;;;;0.10;0.10;;;;;;;21.84;50.18;100055.56;4994292;28;20062;-73
2022/06/20 01:51:39;;;;;;;0.10;0.10;;;;;;;21.80;50.24;100054.88;4977511;28;20031;-74
2022/06/20 01:54:05;;;;;;;0.10;0.10;;;;;;;21.82;49.75;100051.56;4977507;28;20041;-73
2022/06/20 01:56:33;;;;;;;0.10;0.10;;;;;;;21.85;49.98;100057.16;4977401;28;20034;-74
2022/06/20 01:59:10;;;;;;;0.10;0.10;;;;;;;21.87;49.72;100051.03;4977325;28;20490;-73
2022/06/20 02:01:37;;;;;;;0.20;0.20;;;;;;;21.79;50.12;100052.47;4977871;28;20460;-73
2022/06/20 02:04:13;;;;;;;0.10;0.10;;;;;;;21.79;50.33;100046.81;4977458;28;20493;-73
2022/06/20 02:06:39;;;;;;;0.10;0.10;;;;;;;21.78;50.40;100050.88;4977842;28;20457;-73
2022/06/20 02:09:06;;;;;;;0.13;0.13;;;;;;;21.77;50.14;100044.41;4977213;28;20031;-73
2022/06/20 02:11:34;;;;;;;0.15;0.15;;;;;;;21.83;49.75;100051.13;4995144;28;20026;-73
2022/06/20 02:14:21;;;;;;;0.10;0.10;;;;;;;21.73;49.51;100038.03;4989720;28;20043;-73
2022/06/20 02:16:55;;;;;;;0.10;0.10;;;;;;;21.68;49.95;100044.25;4973864;28;20118;-73
2022/06/20 02:19:31;;;;;;;0.10;0.10;;;;;;;21.69;50.18;100043.00;4989958;28;20023;-73
2022/06/20 02:22:02;;;;;;;0.10;0.10;;;;;;;21.76;50.25;100042.81;4970739;28;20027;-74
2022/06/20 02:24:38;;;;;;;0.10;0.10;;;;;;;21.78;50.02;100048.81;4973982;28;20039;-74
2022/06/20 02:27:11;;;;;;;0.20;0.20;;;;;;;21.67;50.91;100048.31;4975318;28;20472;-74
2022/06/20 02:29:39;;;;;;;0.10;0.10;;;;;;;21.65;50.89;100050.78;4972992;28;20043;-74
2022/06/20 02:32:08;;;;;;;0.10;0.10;;;;;;;21.66;51.13;100039.00;4989815;28;20054;-74
2022/06/20 02:34:34;;;;;;;0.10;0.10;;;;;;;21.63;51.15;100041.94;4989775;28;20077;-73
2022/06/20 02:37:07;;;;;;;0.13;0.13;;;;;;;21.45;51.30;100020.50;4973802;28;20030;-73
2022/06/20 02:39:36;;;;;;;0.10;0.10;;;;;;;21.68;51.40;100047.09;4973576;28;20039;-74
2022/06/20 02:42:04;;;;;;;0.10;0.10;;;;;;;21.58;51.75;100037.59;4989727;28;20027;-73
2022/06/20 02:44:31;;;;;;;0.10;0.10;;;;;;;21.58;51.54;100037.59;4989517;28;20061;-73
2022/06/20 02:47:03;;;;;;;0.10;0.10;;;;;;;21.65;51.68;100037.44;4957688;28;20511;-73
2022/06/20 02:49:33;;;;;;;0.10;0.10;;;;;;;21.70;51.64;100036.09;4989931;28;20129;-74
2022/06/20 02:52:01;;;;;;;0.20;0.20;;;;;;;21.82;51.66;100031.75;4990017;28;20073;-74
2022/06/20 02:54:32;;;;;;;0.20;0.20;;;;;;;21.81;50.85;100028.13;4957717;28;20043;-73
2022/06/20 02:57:15;;;;;;;0.20;0.20;;;;;;;21.80;50.65;100035.03;4973809;28;20070;-74
2022/06/20 02:59:46;;;;;;;0.10;0.10;;;;;;;21.70;50.37;100036.09;4971981;28;20061;-73
2022/06/20 03:02:13;;;;;;;0.10;0.10;;;;;;;21.80;49.80;100045.56;4957383;28;20058;-75
2022/06/20 03:04:43;;;;;;;0.10;0.10;;;;;;;21.61;50.43;100048.03;4973580;28;20085;-76
2022/06/20 03:07:26;;;;;;;0.10;0.10;;;;;;;21.63;50.11;100056.91;4957516;28;20499;-75
2022/06/20 03:10:01;;;;;;;0.10;0.10;;;;;;;21.58;50.20;100048.94;4989549;28;20023;-75
2022/06/20 03:12:27;;;;;;;0.10;0.10;;;;;;;21.50;49.94;100047.50;4973787;28;20041;-76
2022/06/20 03:14:59;;;;;;;0.10;0.10;;;;;;;21.55;50.07;100046.97;4972912;28;20137;-75
2022/06/20 03:17:25;;;;;;;0.10;0.10;;;;;;;21.56;50.56;100042.91;4973349;28;20050;-75
2022/06/20 03:20:02;;;;;;;0.20;0.20;;;;;;;21.69;49.31;100055.13;4973547;28;20062;-75
2022/06/20 03:22:33;;;;;;;0.10;0.10;;;;;;;21.57;49.66;100052.19;4989668;28;20037;-75
2022/06/20 03:25:02;;;;;;;0.10;0.10;;;;;;;21.60;50.24;100062.63;4989336;28;20094;-75
2022/06/20 03:27:32;;;;;;;0.10;0.10;;;;;;;21.59;49.96;100055.38;4973470;28;20030;-75
2022/06/20 03:30:17;;;;;;;0.10;0.10;;;;;;;21.58;50.07;100056.63;4989342;28;20031;-75
2022/06/20 03:32:43;;;;;;;0.10;0.10;;;;;;;21.60;50.23;100062.63;4989380;28;20074;-75
2022/06/20 03:35:09;;;;;;;0.10;0.10;;;;;;;21.59;50.65;100063.88;4973093;28;20030;-75
2022/06/20 03:37:36;;;;;;;0.10;0.10;;;;;;;21.56;50.33;100059.88;4973097;28;20031;-75
2022/06/20 03:40:03;;;;;;;0.10;0.10;;;;;;;21.57;50.22;100067.16;4974104;28;20113;-75
2022/06/20 03:42:29;;;;;;;0.10;0.10;;;;;;;21.58;50.39;100060.25;4961413;28;20030;-75
2022/06/20 03:44:57;;;;;;;0.10;0.10;;;;;;;21.59;50.65;100072.38;4977016;28;20469;-75
2022/06/20 03:47:34;;;;;;;0.10;0.10;;;;;;;21.80;50.18;100073.91;4977002;28;20386;-75
2022/06/20 03:50:25;;;;;;;0.20;0.20;;;;;;;21.75;50.36;100069.56;4992679;28;20035;-75
2022/06/20 03:53:10;;;;;;;0.13;0.13;;;;;;;21.69;50.43;100063.63;4975294;28;20504;-75
2022/06/20 03:55:54;;;;;;;0.20;0.20;;;;;;;21.62;50.78;100071.47;4992817;28;20042;-75
2022/06/20 03:58:23;;;;;;;0.10;0.10;;;;;;;21.71;51.06;100074.50;4993339;28;20544;-75
2022/06/20 04:01:03;;;;;;;0.10;0.10;;;;;;;22.34;49.78;100070.50;4992618;28;20078;-75
2022/06/20 04:03:37;;;;;;;0.10;0.10;;;;;;;22.91;48.05;100081.06;4976915;28;20113;-75
2022/06/20 04:06:03;;;;;;;0.10;0.10;;;;;;;23.40;46.97;100077.94;4992878;28;20034;-75
2022/06/20 04:11:27;;;;;;;0.10;0.10;;;;;;;24.18;45.02;100091.66;4977994;28;20081;-74
2022/06/20 04:14:19;;;;;;;0.10;0.10;;;;;;;24.55;44.67;100089.97;4976068;28;20480;-74
2022/06/20 04:20:01;;;;;;;0.10;0.10;;;;;;;25.50;42.55;100074.59;4977530;28;20085;-74
2022/06/20 04:22:31;;;;;;;0.10;0.10;;;;;;;25.89;41.73;100084.44;4977684;28;20070;-74
2022/06/20 04:25:15;;;;;;;0.20;0.20;;;;;;;26.39;40.58;100070.88;4992690;28;20031;-74
2022/06/20 04:27:49;;;;;;;0.10;0.10;;;;;;;26.79;40.11;100081.34;4992316;28;20042;-74
2022/06/20 04:30:21;;;;;;;0.10;0.10;;;;;;;27.12;39.20;100082.28;4976675;28;20038;-74
2022/06/20 04:32:57;;;;;;;0.10;0.10;;;;;;;27.41;38.06;100089.50;4992261;28;20031;-75
2022/06/20 04:35:33;;;;;;;0.10;0.10;;;;;;;27.73;38.04;100090.81;4975870;28;20105;-75
2022/06/20 04:38:24;;;;;;;0.10;0.10;;;;;;;28.21;37.01;100096.59;4992645;28;20033;-75
2022/06/20 04:40:59;;;;;;;0.10;0.10;;;;;;;28.56;36.63;100099.69;4972769;28;20070;-74
2022/06/20 04:43:47;;;;;;;0.17;0.17;;;;;;;28.79;35.96;100103.00;4975808;28;20023;-74
2022/06/20 04:46:22;;;;;;;0.10;0.10;;;;;;;29.16;35.42;100106.34;4975353;28;20031;-75
2022/06/20 04:48:49;;;;;;;0.20;0.20;;;;;;;29.21;33.94;100108.50;4992278;28;20038;-74
2022/06/20 04:51:19;;;;;;;0.10;0.10;;;;;;;29.23;33.40;100100.19;4992084;28;20377;-75
2022/06/20 04:53:48;;;;;;;0.10;0.10;;;;;;;28.70;33.54;100112.44;4975090;28;20066;-75
2022/06/20 04:56:16;;;;;;;0.10;0.10;;;;;;;29.08;33.09;100113.72;4975671;28;20065;-75
2022/06/20 04:58:48;;;;;;;0.10;0.10;;;;;;;29.51;32.51;100126.50;4975870;28;20027;-74
2022/06/20 05:01:16;;;;;;;0.10;0.10;;;;;;;29.51;31.79;100120.75;4975432;28;20026;-75
2022/06/20 05:03:48;;;;;;;0.10;0.10;;;;;;;29.08;33.04;100117.38;4991691;28;20027;-74
2022/06/20 05:06:20;;;;;;;0.10;0.10;;;;;;;28.85;34.83;100121.06;4976808;28;20027;-74
2022/06/20 05:09:00;;;;;;;0.10;0.10;;;;;;;29.04;35.33;100125.41;4991755;28;20104;-74
2022/06/20 05:11:43;;;;;;;0.10;0.10;;;;;;;28.93;35.86;100130.88;4991968;28;20031;-74
2022/06/20 05:14:24;;;;;;;0.10;0.10;;;;;;;28.82;35.99;100133.53;4975253;28;20489;-74
2022/06/20 05:16:54;;;;;;;0.10;0.10;;;;;;;28.74;36.26;100129.44;4975821;28;20035;-74
2022/06/20 05:19:40;;;;;;;0.10;0.10;;;;;;;28.52;36.00;100133.44;4991395;28;20085;-74
2022/06/20 05:22:13;;;;;;;0.10;0.10;;;;;;;28.97;34.10;100134.34;4991926;28;20392;-74
2022/06/20 05:24:40;;;;;;;0.10;0.10;;;;;;;29.06;35.03;100125.69;4991239;28;20065;-74
2022/06/20 05:27:15;;;;;;;0.10;0.10;;;;;;;28.93;35.21;100133.75;4975285;28;20133;-74
2022/06/20 05:29:43;;;;;;;0.10;0.10;;;;;;;29.54;34.12;100141.91;4975013;28;20027;-74
2022/06/20 05:32:15;;;;;;;0.10;0.10;;;;;;;30.42;32.76;100135.19;4991202;28;20026;-74
2022/06/20 05:34:44;;;;;;;0.10;0.10;;;;;;;30.11;31.99;100141.53;4975233;28;20039;-74
2022/06/20 05:37:30;;;;;;;0.10;0.10;;;;;;;30.55;30.98;100141.34;4991058;28;20173;-74
2022/06/20 05:40:08;;;;;;;0.10;0.10;;;;;;;30.66;31.06;100149.31;4990900;28;20039;-74
2022/06/20 05:42:34;;;;;;;0.10;0.10;;;;;;;29.82;31.65;100150.97;4991697;28;20023;-74
2022/06/20 05:45:13;;;;;;;0.10;0.10;;;;;;;29.73;31.74;100144.06;4974540;28;20062;-74
2022/06/20 05:47:39;;;;;;;0.10;0.10;;;;;;;30.10;31.66;100149.34;4957832;28;20034;-74
2022/06/20 05:50:38;;;;;;;0.10;0.10;;;;;;;29.77;31.02;100160.28;4974971;28;20081;-74
2022/06/20 05:53:10;;;;;;;0.10;0.10;;;;;;;29.63;31.43;100154.06;4990700;28;20027;-73
2022/06/20 05:55:46;;;;;;;0.10;0.10;;;;;;;29.11;33.08;100155.72;4975641;28;20038;-74
2022/06/20 05:58:26;;;;;;;0.10;0.10;;;;;;;30.10;30.82;100157.94;4990513;28;20053;-74
2022/06/20 06:00:54;;;;;;;0.10;0.10;;;;;;;29.83;30.74;100152.53;4972279;28;20039;-74
2022/06/20 06:03:23;;;;;;;0.10;0.10;;;;;;;30.01;29.70;100161.72;4989721;28;20094;-74
2022/06/20 06:05:54;;;;;;;0.10;0.10;;;;;;;31.06;29.63;100160.00;4990127;28;20065;-74
2022/06/20 06:08:34;;;;;;;0.10;0.10;;;;;;;30.93;29.25;100162.47;4990453;28;20118;-75
2022/06/20 06:11:08;;;;;;;0.10;0.10;;;;;;;30.40;30.01;100166.47;4974563;28;20030;-74
2022/06/20 06:13:42;;;;;;;0.10;0.10;;;;;;;30.46;30.61;100165.25;4973600;28;20046;-75
2022/06/20 06:19:42;;;;;;;0.10;0.10;;;;;;;30.73;29.52;100169.78;4975196;28;20504;-74
2022/06/20 06:22:19;;;;;;;0.10;0.10;;;;;;;30.77;29.23;100166.72;4971973;28;20049;-74
2022/06/20 06:24:58;;;;;;;0.10;0.10;;;;;;;31.65;28.08;100173.16;4975632;28;20369;-74
2022/06/20 06:27:28;;;;;;;0.10;0.10;;;;;;;30.99;29.20;100177.69;4975224;28;20031;-74
2022/06/20 06:30:00;;;;;;;0.10;0.10;;;;;;;30.89;30.00;100168.41;4974073;28;20034;-74
2022/06/20 06:32:33;;;;;;;0.10;0.10;;;;;;;31.13;30.06;100164.53;4990575;28;20035;-74
2022/06/20 06:35:16;;;;;;;0.10;0.10;;;;;;;31.10;29.88;100174.13;4989661;28;20137;-74
2022/06/20 06:37:50;;;;;;;0.10;0.10;;;;;;;30.43;30.64;100171.22;4973854;28;20031;-75
2022/06/20 06:40:32;;;;;;;0.10;0.10;;;;;;;31.17;29.90;100170.84;4975402;28;20034;-74
2022/06/20 06:42:59;;;;;;;0.10;0.10;;;;;;;31.46;29.41;100175.59;4989565;28;20066;-75
2022/06/20 06:45:28;;;;;;;0.10;0.10;;;;;;;31.35;29.78;100166.84;4990252;28;20027;-74
2022/06/20 06:47:59;;;;;;;0.10;0.10;;;;;;;30.82;30.57;100173.81;4990146;28;20362;-74
2022/06/20 06:50:43;;;;;;;0.10;0.10;;;;;;;31.24;29.89;100179.78;4973819;28;20037;-74
2022/06/20 06:53:16;;;;;;;0.10;0.10;;;;;;;31.67;30.17;100182.84;4972696;28;20063;-75
2022/06/20 06:55:49;;;;;;;0.10;0.10;;;;;;;31.08;30.99;100191.09;4989608;28;20532;-74
2022/06/20 06:58:33;;;;;;;;;;;;;;;31.83;29.87;100189.28;4973469;28;20102;-74
2022/06/20 07:01:20;;;;;;;0.10;0.10;;;;;;;31.62;30.37;100186.44;4973707;28;19910;-74
2022/06/20 07:03:56;;;;;;;0.10;0.10;;;;;;;32.72;29.16;100184.13;4989394;28;20069;-74
2022/06/20 07:06:36;;;;;;;0.10;0.10;;;;;;;33.57;28.28;100196.72;4973721;28;20041;-73
2022/06/20 07:09:11;;;;;;;0.10;0.10;;;;;;;33.11;28.63;100169.84;4989335;28;20023;-74
2022/06/20 07:11:44;;;;;;;0.10;0.10;;;;;;;32.60;29.64;100188.25;4973542;28;20031;-74
2022/06/20 07:14:22;;;;;;;0.10;0.10;;;;;;;31.73;32.57;100189.44;4985334;28;20408;-74
2022/06/20 07:17:00;;;;;;;0.10;0.10;;;;;;;31.59;33.08;100184.63;4997430;28;20031;-74
2022/06/20 07:19:27;;;;;;;0.10;0.10;;;;;;;32.00;32.74;100172.94;4980142;28;20044;-74
2022/06/20 07:21:54;;;;;;;0.10;0.10;;;;;;;31.93;33.10;100184.91;4996403;28;20026;-74
2022/06/20 07:24:24;;;;;;;0.10;0.10;;;;;;;31.88;33.62;100183.56;4997241;28;20026;-74
2022/06/20 07:26:58;;;;;;;0.10;0.10;;;;;;;32.68;32.59;100186.44;4996267;28;20124;-74
2022/06/20 07:29:36;;;;;;;0.10;0.10;;;;;;;33.61;31.26;100188.56;4996153;28;20030;-74
2022/06/20 07:32:10;;;;;;;0.10;0.10;;;;;;;33.32;31.45;100187.72;4996962;28;20369;-74
2022/06/20 07:34:39;;;;;;;0.10;0.10;;;;;;;33.46;32.19;100179.41;4996196;28;20038;-74
2022/06/20 07:37:14;;;;;;;0.10;0.10;;;;;;;33.80;31.41;100186.75;4996100;28;20125;-74
2022/06/20 07:40:08;;;;;;;0.10;0.10;;;;;;;34.31;30.77;100184.63;4998024;28;20114;-74
2022/06/20 07:42:57;;;;;;;0.10;0.10;;;;;;;34.20;31.09;100183.84;4997926;28;20023;-74
2022/06/20 07:45:32;;;;;;;0.10;0.10;;;;;;;34.70;31.04;100186.63;4978786;28;20043;-74
2022/06/20 07:48:02;;;;;;;0.10;0.10;;;;;;;35.36;30.00;100184.69;4979676;28;20122;-74
2022/06/20 07:50:43;;;;;;;0.10;0.10;;;;;;;34.56;31.77;100187.72;4979676;28;20039;-74
2022/06/20 07:53:21;;;;;;;0.10;0.10;;;;;;;33.86;31.48;100167.31;4979389;28;20057;-73
2022/06/20 07:55:53;;;;;;;0.10;0.10;;;;;;;33.28;31.89;100180.63;4996695;28;20034;-74
2022/06/20 07:58:39;;;;;;;0.10;0.10;;;;;;;32.91;32.83;100177.91;4996492;28;20037;-74
2022/06/20 08:01:20;;;;;;;0.10;0.10;;;;;;;33.48;33.55;100182.53;4979576;28;20049;-74
2022/06/20 08:03:56;;;;;;;0.10;0.10;;;;;;;33.15;34.09;100175.38;4980003;28;20041;-74
2022/06/20 08:06:31;;;;;;;0.10;0.10;;;;;;;33.70;33.68;100182.53;4979477;28;20032;-74
2022/06/20 08:09:03;;;;;;;0.10;0.10;;;;;;;33.72;33.34;100185.72;4995646;28;20033;-74
2022/06/20 08:11:46;;;;;;;0.10;0.10;;;;;;;34.25;32.84;100175.19;4995933;28;20527;-75
2022/06/20 08:14:24;;;;;;;0.10;0.10;;;;;;;34.86;31.75;100182.88;4992304;28;20086;-75
2022/06/20 08:16:54;;;;;;;0.10;0.10;;;;;;;33.93;33.13;100182.53;4993187;28;20031;-75
2022/06/20 08:19:20;;;;;;;0.10;0.10;;;;;;;35.02;31.75;100183.34;4977145;28;20469;-75
2022/06/20 08:21:56;;;;;;;0.10;0.10;;;;;;;35.29;30.56;100184.50;4992316;28;20476;-75
2022/06/20 08:24:33;;;;;;;0.10;0.10;;;;;;;33.96;32.55;100188.06;4977526;28;20027;-75
2022/06/20 08:27:08;;;;;;;0.10;0.10;;;;;;;33.06;34.08;100187.91;4976409;28;20030;-75
2022/06/20 08:29:50;;;;;;;0.10;0.10;;;;;;;33.04;32.85;100187.66;4976819;28;20425;-75
2022/06/20 08:32:16;;;;;;;;;;;;;;;32.74;33.38;100195.88;4977579;28;20031;-75
2022/06/20 08:34:53;;;;;;;0.10;0.10;;;;;;;33.42;32.42;100191.19;4992705;28;20371;-75
2022/06/20 08:37:30;;;;;;;0.10;0.10;;;;;;;32.84;32.65;100185.72;4976736;28;20030;-75
2022/06/20 08:40:10;;;;;;;0.10;0.10;;;;;;;32.83;32.17;100192.78;4992380;28;20109;-75
2022/06/20 08:42:51;;;;;;;0.10;0.10;;;;;;;32.85;32.25;100166.34;4991729;28;20035;-75
2022/06/20 08:45:44;;;;;;;0.10;0.10;;;;;;;33.35;31.69;100186.69;4991366;28;20027;-75
2022/06/20 08:48:41;;;;;;;0.10;0.10;;;;;;;33.82;31.03;100194.88;4991510;28;20031;-75
2022/06/20 08:51:34;;;;;;;0.10;0.10;;;;;;;33.59;30.30;100191.19;4977306;28;20086;-75
2022/06/20 08:54:02;;;;;;;0.10;0.10;;;;;;;34.42;28.76;100177.25;4991303;28;20034;-75
2022/06/20 08:56:37;;;;;;;0.10;0.10;;;;;;;34.49;29.10;100188.28;4991452;28;20041;-75
2022/06/20 08:59:46;;;;;;;0.10;0.10;;;;;;;34.64;28.27;100189.53;4992409;28;20066;-75
2022/06/20 09:02:24;;;;;;;0.10;0.10;;;;;;;34.08;29.62;100188.84;4991387;28;20026;-75
2022/06/20 09:05:05;;;;;;;0.10;0.10;;;;;;;35.25;28.23;100190.56;4991688;28;20358;-75
2022/06/20 09:07:48;;;;;;;0.10;0.10;;;;;;;34.52;28.63;100193.00;4991338;28;20058;-75
2022/06/20 09:10:24;;;;;;;0.10;0.10;;;;;;;34.54;28.91;100185.38;4991549;28;20034;-76
2022/06/20 09:13:00;;;;;;;0.10;0.10;;;;;;;34.24;29.19;100193.81;4991566;28;20030;-75
2022/06/20 09:15:42;;;;;;;0.10;0.10;;;;;;;34.42;28.73;100194.56;4996686;28;20030;-75
2022/06/20 09:18:28;;;;;;;0.10;0.10;;;;;;;33.65;29.21;100174.66;4994589;28;20480;-75
2022/06/20 09:21:12;;;;;;;0.10;0.10;;;;;;;33.65;30.01;100197.75;4977483;28;20041;-75
2022/06/20 09:23:46;;;;;;;0.10;0.10;;;;;;;34.03;29.49;100180.97;4994456;28;20033;-75
2022/06/20 09:26:38;;;;;;;0.10;0.10;;;;;;;34.39;29.09;100194.28;4995275;28;20030;-75
2022/06/20 09:29:22;;;;;;;0.10;0.10;;;;;;;34.49;29.18;100199.81;4979024;28;20535;-75
2022/06/20 09:32:10;;;;;;;0.10;0.10;;;;;;;34.18;29.51;100190.16;4994393;28;20097;-75
2022/06/20 09:35:30;;;;;;;0.10;0.10;;;;;;;34.65;28.94;100196.09;4995260;28;20439;-75
2022/06/20 09:38:34;;;;;;;0.10;0.10;;;;;;;33.98;30.10;100188.31;4938310;29;20560;-75
2022/06/20 09:41:16;;;;;;;0.10;0.10;;;;;;;34.19;30.04;100188.03;4978505;28;20026;-75
2022/06/20 09:44:22;;;;;;;0.10;0.10;;;;;;;33.59;31.23;100194.88;4977672;28;20495;-75
2022/06/20 09:46:56;;;;;;;0.10;0.10;;;;;;;34.28;30.56;100191.44;4978141;28;20037;-75
2022/06/20 09:49:42;;;;;;;0.10;0.10;;;;;;;34.38;30.34;100189.06;4993710;28;20044;-75
2022/06/20 09:52:17;;;;;;;0.10;0.10;;;;;;;32.74;32.98;100184.38;4978173;28;20081;-76
2022/06/20 09:55:06;;;;;;;0.10;0.10;;;;;;;33.35;32.51;100180.91;4993927;28;20061;-75
2022/06/20 09:57:47;;;;;;;0.10;0.10;;;;;;;33.10;33.40;100176.16;4967415;28;20030;-74
2022/06/20 10:00:19;;;;;;;0.10;0.10;;;;;;;32.64;34.55;100180.13;4977493;28;20035;-75
2022/06/20 10:03:07;;;;;;;0.10;0.10;;;;;;;32.91;34.12;100169.28;4995033;28;20023;-75
2022/06/20 10:05:48;;;;;;;0.10;0.10;;;;;;;32.86;33.76;100180.22;4993694;28;20054;-75
2022/06/20 10:08:29;;;;;;;0.10;0.10;;;;;;;33.66;32.18;100181.22;4993365;28;20041;-75
2022/06/20 10:11:31;;;;;;;0.10;0.10;;;;;;;32.37;35.00;100183.66;4977710;28;20124;-74
2022/06/20 10:14:18;;;;;;;0.10;0.10;;;;;;;32.46;36.10;100180.59;4993374;28;20137;-74
2022/06/20 10:17:28;;;;;;;0.10;0.10;;;;;;;32.58;36.41;100188.75;4994345;28;20034;-75
2022/06/20 10:20:17;;;;;;;0.10;0.10;;;;;;;32.85;36.08;100172.88;4976804;28;20141;-75
2022/06/20 10:23:08;;;;;;;0.10;0.10;;;;;;;32.83;36.57;100172.63;4993438;28;20032;-75
2022/06/20 10:25:48;;;;;;;0.10;0.10;;;;;;;32.82;36.72;100178.91;4977210;28;20037;-75
2022/06/20 10:28:24;;;;;;;0.10;0.10;;;;;;;32.45;37.28;100168.28;4993440;28;20085;-75
2022/06/20 10:30:58;;;;;;;0.10;0.10;;;;;;;32.85;36.93;100169.22;4961504;28;20034;-75
2022/06/20 10:33:55;;;;;;;0.10;0.10;;;;;;;32.60;37.10;100179.63;4994224;28;20429;-75
2022/06/20 10:36:36;;;;;;;0.10;0.10;;;;;;;32.67;36.67;100150.31;4991414;28;20093;-74
2022/06/20 10:39:20;;;;;;;0.10;0.10;;;;;;;32.82;35.98;100173.94;4977317;28;20421;-75
2022/06/20 10:42:07;;;;;;;0.10;0.10;;;;;;;32.19;36.85;100185.63;4993815;28;20215;-75
2022/06/20 10:44:57;;;;;;;0.10;0.10;;;;;;;31.74;37.65;100182.38;4993651;28;20081;-75
2022/06/20 10:48:12;;;;;;;0.10;0.10;;;;;;;32.28;36.61;100176.78;4993410;28;20030;-75
2022/06/20 10:50:49;;;;;;;0.10;0.10;;;;;;;32.09;36.67;100172.72;4886251;28;20040;-75
2022/06/20 10:53:17;;;;;;;0.10;0.10;;;;;;;31.75;37.40;100175.34;4994453;28;20065;-74
2022/06/20 10:55:53;;;;;;;0.10;0.10;;;;;;;32.20;35.93;100178.56;4993491;28;20399;-74
2022/06/20 10:58:43;;;;;;;0.10;0.10;;;;;;;32.08;35.88;100179.78;4977202;28;20057;-75
2022/06/20 11:01:31;;;;;;;0.10;0.10;;;;;;;32.34;35.68;100168.97;4993408;28;20362;-74
2022/06/20 11:04:03;;;;;;;0.10;0.10;;;;;;;31.68;37.18;100135.53;4993927;28;20469;-75
2022/06/20 11:06:57;;;;;;;0.10;0.10;;;;;;;31.39;37.91;100173.97;4992506;28;20022;-75
2022/06/20 11:09:43;;;;;;;0.10;0.10;;;;;;;31.84;38.03;100170.72;4908741;28;20036;-75
2022/06/20 11:12:27;;;;;;;0.10;0.10;;;;;;;32.58;37.29;100183.00;4976370;28;20031;-75
2022/06/20 11:15:20;;;;;;;0.10;0.10;;;;;;;32.70;38.58;100183.03;4976243;28;20479;-75
2022/06/20 11:18:00;;;;;;;0.10;0.10;;;;;;;31.88;41.11;100182.78;4993651;28;20026;-75
2022/06/20 11:20:53;;;;;;;0.10;0.10;;;;;;;31.66;41.01;100149.63;4977217;28;20026;-74
2022/06/20 11:23:27;;;;;;;0.10;0.10;;;;;;;31.78;41.08;100165.66;4975890;28;20073;-75
2022/06/20 11:25:59;;;;;;;0.10;0.10;;;;;;;32.06;40.96;100160.16;4976587;28;20102;-74
2022/06/20 11:28:56;;;;;;;0.10;0.10;;;;;;;31.92;41.21;100183.34;4992484;28;20049;-75
2022/06/20 11:32:08;;;;;;;0.10;0.10;;;;;;;30.91;42.77;100177.34;4976838;28;20428;-75
2022/06/20 11:35:00;;;;;;;0.10;0.10;;;;;;;30.84;42.14;100176.97;4987500;28;20074;-75
2022/06/20 11:37:39;;;;;;;0.10;0.10;;;;;;;30.99;43.20;100177.69;4976546;28;20084;-75
2022/06/20 11:40:38;;;;;;;0.10;0.10;;;;;;;31.04;43.69;100177.75;4993917;28;20478;-75
2022/06/20 11:43:22;;;;;;;0.10;0.10;;;;;;;31.05;41.71;100181.41;4992449;28;20162;-75
2022/06/20 11:46:14;;;;;;;0.10;0.10;;;;;;;31.81;40.64;100161.81;4992663;28;20554;-75
2022/06/20 11:48:57;;;;;;;0.10;0.10;;;;;;;31.38;41.18;100151.47;4961313;28;20464;-75
2022/06/20 11:51:33;;;;;;;0.10;0.10;;;;;;;32.19;39.51;100174.13;4992630;28;20121;-74
2022/06/20 11:54:14;;;;;;;0.10;0.10;;;;;;;31.66;40.58;100161.13;4994290;28;20038;-75
2022/06/20 11:57:14;;;;;;;0.10;0.10;;;;;;;31.96;40.58;100178.94;4993235;28;20027;-75
2022/06/20 11:59:58;;;;;;;0.10;0.10;;;;;;;31.98;41.04;100178.41;4992993;28;20480;-74
2022/06/20 12:02:37;;;;;;;0.10;0.10;;;;;;;31.77;40.90;100172.72;4995756;28;20031;-74
2022/06/20 12:05:17;;;;;;;0.10;0.10;;;;;;;31.56;40.26;100156.88;4997806;28;20038;-74
2022/06/20 12:08:04;;;;;;;0.10;0.10;;;;;;;32.19;37.15;100179.09;4996696;28;20027;-74
2022/06/20 12:10:44;;;;;;;0.10;0.10;;;;;;;31.74;39.53;100185.25;4996278;28;20031;-74
2022/06/20 12:13:36;;;;;;;0.10;0.10;;;;;;;31.92;40.07;100172.63;4980091;28;20082;-74
2022/06/20 12:16:19;;;;;;;0.10;0.10;;;;;;;32.18;37.22;100177.50;4995906;28;20037;-73
2022/06/20 12:24:49;;;;;;;0.10;0.10;;;;;;;31.80;39.13;100177.50;4997375;28;20079;-74
2022/06/20 12:27:18;;;;;;;0.10;0.10;;;;;;;32.00;34.96;100155.66;4995637;28;20030;-74
2022/06/20 12:29:46;;;;;;;0.10;0.10;;;;;;;32.19;35.84;100171.22;4996848;28;20361;-74
2022/06/20 12:32:19;;;;;;;0.10;0.10;;;;;;;32.29;37.40;100161.09;4979583;28;20054;-74